aviador You're here:

KMGW Decoded Metar

MORGANTOWN in WV, USA
Report Time2017-07-23 05:53:00
UTC Time2017-07-23 06:53:52
Flight Rules vfr VFR
Wind220° at 04 kt
W.Decomp.*RWY 18: 2.6 kt HW 3.0 kt RCW
W.Rank220° ranks 4
Current wind is below 220° avg. (6.6)
Visibility9999 m
Phenomena:N/A
Clouds:N/A
Expected CloudBase > 400 ft AGL from Temp-Dew spread
CeilingNone
Temp21°C (ISA +8)
Dew Point20°C (94% RH)
QNH1011 hPa
Density Alt2,608 ft
Elevation1,240 ft
Report Wrong Elevation
Raw Report
METAR KMGW 230553Z AUTO 22004KT 10SM CLR 21/20 A2985 RMK AO2 SLP099
60000 T02110200 10222 20211 56006=

Extra information for KMGW:More info

Metar Taf Metar & Taf Last 4 Metars F.Rules Stats Wind Profile Meteogram Temp Stats Airport Information Weather charts Add Link Nearby VenuesMetar ALERT Operation Metar Decoded Social comments

AIRNAV info for KMGW